»·PEaware :: AAL427 KSEA-KOTH

AAL427 :: KSEA-KOTH

FLIGHT INFORMATION

Flight Status: Arrived
Operator:
American Airlines
More flights by this operator :: More flights under this callsign
Pilot: Chris S. (2433)
Aircraft: AIRBUS A320
(A320)
More flights by this aircraft type
Origin: KSEA Seattle-Tacoma Intl
United States
Destination: KOTH North Bend Mun
United States
More flights between these airports :: More routes between these airports
Route: ELMAA3 ELMAA CVO OTH
File this flight plan on PilotEdge
Remarks:
Altitude:
(Current/Filed)
26,000ft
Speed:
(Current/Filed)
450kts
Departed: 20-May-18 09:12 AM
Arrived: 20-May-18 10:04 AM
Distance/Time
Traveled:
255nm/0:52
Distance/Time
To Go:
Arrived

Flight Plot

Page will automatically refresh every two minutes.

Flight plan parsing failed; only flown route is shown


Map Options




Map Legend


Flown Route
Filed Route
Departure Airport
Arrival Airport
Navaid (VOR, NDB)
Fix

Horizontal Profiles

Position Reports

Time Latitude Longitude Heading Altitude Ground
Speed
20-May-18 08:47 47.461013 -122.301542 180 451ft 0kts
20-May-18 08:48 47.461013 -122.301542 180 451ft 0kts
20-May-18 08:49 47.461013 -122.301542 180 451ft 0kts
20-May-18 08:50 47.461013 -122.301542 180 451ft 0kts
20-May-18 08:51 47.461013 -122.301542 180 451ft 0kts
20-May-18 08:52 47.461013 -122.301542 180 451ft 0kts
20-May-18 08:53 47.461200 -122.301541 180 451ft 2kts
20-May-18 08:54 47.461712 -122.301683 122 449ft 2kts
20-May-18 08:55 47.461753 -122.301967 89 448ft 0kts
20-May-18 08:56 47.461753 -122.301967 89 448ft 0kts
20-May-18 08:57 47.461753 -122.301967 89 448ft 0kts
20-May-18 08:58 47.461716 -122.301778 280 448ft 10kts
20-May-18 08:59 47.461736 -122.303649 274 444ft 0kts
20-May-18 09:00 47.461736 -122.303649 274 444ft 0kts
20-May-18 09:01 47.461736 -122.303649 274 444ft 0kts
20-May-18 09:02 47.461736 -122.303649 274 444ft 0kts
20-May-18 09:03 47.461736 -122.303649 274 444ft 0kts
20-May-18 09:04 47.461736 -122.303649 274 444ft 0kts
20-May-18 09:05 47.461736 -122.303649 274 444ft 0kts
20-May-18 09:06 47.461736 -122.303649 274 444ft 0kts
20-May-18 09:07 47.461736 -122.303649 274 444ft 0kts
20-May-18 09:08 47.461736 -122.303649 274 444ft 0kts
20-May-18 09:09 47.463582 -122.306246 344 419ft 4kts
20-May-18 09:10 47.463671 -122.306341 312 418ft 0kts
20-May-18 09:11 47.463438 -122.307764 185 410ft 7kts
20-May-18 09:12 47.438545 -122.308603 184 1242ft 175kts
20-May-18 09:13 47.380916 -122.311351 179 4180ft 251kts
20-May-18 09:14 47.308693 -122.324068 196 7881ft 276kts
20-May-18 09:15 47.232682 -122.353621 194 11164ft 306kts
20-May-18 09:16 47.140853 -122.387439 194 12940ft 366kts
20-May-18 09:17 47.041547 -122.423128 194 14998ft 371kts
20-May-18 09:18 46.941522 -122.458951 194 15031ft 373kts
20-May-18 09:19 46.842024 -122.494503 194 15451ft 376kts
20-May-18 09:20 46.738914 -122.531222 194 17800ft 388kts
20-May-18 09:21 46.632931 -122.568775 194 19923ft 399kts
20-May-18 09:22 46.524075 -122.607185 194 21826ft 409kts
20-May-18 09:23 46.413051 -122.646188 194 23530ft 418kts
20-May-18 09:24 46.299860 -122.685777 193 25071ft 427kts
20-May-18 09:25 46.184163 -122.726065 193 26158ft 431kts
20-May-18 09:26 46.066942 -122.766709 193 26171ft 437kts
20-May-18 09:27 45.949186 -122.807343 193 26164ft 437kts
20-May-18 09:28 45.836514 -122.846074 193 26159ft 437kts
20-May-18 09:29 45.719263 -122.886208 193 26158ft 437kts
20-May-18 09:30 45.601691 -122.926281 193 26149ft 437kts
20-May-18 09:31 45.483926 -122.966246 193 26150ft 437kts
20-May-18 09:32 45.365822 -123.006154 193 26159ft 437kts
20-May-18 09:33 45.250332 -123.056961 204 26173ft 437kts
20-May-18 09:34 45.139543 -123.126563 204 26165ft 436kts
20-May-18 09:35 45.028599 -123.195692 203 26143ft 437kts
20-May-18 09:36 44.917166 -123.264829 203 26143ft 440kts
20-May-18 09:37 44.810184 -123.330840 203 25571ft 405kts
20-May-18 09:38 44.709284 -123.392928 203 24626ft 393kts
20-May-18 09:39 44.610221 -123.453703 203 23653ft 388kts
20-May-18 09:40 44.512193 -123.513586 203 22690ft 382kts
20-May-18 09:41 44.416064 -123.572084 203 21723ft 377kts
20-May-18 09:42 44.320817 -123.629789 204 20737ft 372kts
20-May-18 09:43 44.227545 -123.686143 203 19458ft 360kts
20-May-18 09:44 44.137775 -123.740187 203 17555ft 346kts
20-May-18 09:45 44.051376 -123.792046 203 15699ft 334kts
20-May-18 09:46 43.967824 -123.842006 203 13889ft 323kts
20-May-18 09:47 43.887358 -123.889997 203 12127ft 314kts
20-May-18 09:48 43.808685 -123.936791 203 10540ft 301kts
20-May-18 09:49 43.736590 -123.979472 204 9862ft 267kts
20-May-18 09:50 43.669617 -124.019114 204 8676ft 259kts
20-May-18 09:51 43.604164 -124.057773 204 7472ft 255kts
20-May-18 09:52 43.539361 -124.095942 204 6289ft 251kts
20-May-18 09:53 43.475759 -124.133309 204 5149ft 248kts
20-May-18 09:54 43.415853 -124.168645 210 4711ft 218kts
20-May-18 09:55 43.370338 -124.213381 218 4480ft 191kts
20-May-18 09:56 43.327235 -124.256514 218 4197ft 191kts
20-May-18 09:57 43.284877 -124.300355 231 3623ft 188kts
20-May-18 09:58 43.276251 -124.364697 297 3039ft 179kts
20-May-18 09:59 43.308248 -124.407978 347 2435ft 155kts
20-May-18 10:00 43.345261 -124.407765 25 2009ft 135kts
20-May-18 10:01 43.369820 -124.368946 56 1812ft 134kts
20-May-18 10:02 43.387874 -124.325597 56 1111ft 129kts
20-May-18 10:03 43.405602 -124.282662 54 427ft 128kts
20-May-18 10:04 43.420043 -124.247706 63 19ft 20kts
20-May-18 10:05 43.420673 -124.242994 239 14ft 6kts
20-May-18 10:06 43.419386 -124.246079 240 20ft 17kts
20-May-18 10:07 43.417754 -124.247113 281 28ft 5kts
20-May-18 10:08 43.417413 -124.246995 150 29ft 0kts
20-May-18 10:09 43.417413 -124.246995 150 29ft 0kts
20-May-18 10:10 43.417413 -124.246995 150 29ft 0kts

Navigation Log

Ident Type
Flight plan parsing failed, navigation log unavailable